createdAt,value
2018-10-01T00:00:33.254Z,84.99
2018-10-01T00:01:33.203Z,84.95
2018-10-01T00:02:33.183Z,84.69
2018-10-01T00:03:33.263Z,84.89
2018-10-01T00:04:41.960Z,84.38
2018-10-01T00:05:33.211Z,85.61
2018-10-01T00:06:33.153Z,85.61
2018-10-01T00:07:33.143Z,85.61
2018-10-01T00:08:33.131Z,85.30
2018-10-01T00:09:33.107Z,85.50
2018-10-01T00:10:33.119Z,84.69
2018-10-01T00:11:33.189Z,84.79
2018-10-01T00:12:33.148Z,84.89
2018-10-01T00:13:33.102Z,84.65
2018-10-01T00:14:33.056Z,84.79
2018-10-01T00:15:33.067Z,84.79
2018-10-01T00:16:33.044Z,84.65
2018-10-01T00:17:33.017Z,84.75
2018-10-01T00:18:33.036Z,84.79
2018-10-01T00:19:33.090Z,85.26
2018-10-01T00:20:33.064Z,84.69
2018-10-01T00:21:32.979Z,84.17
2018-10-01T00:22:32.979Z,84.79
2018-10-01T00:23:32.976Z,84.69
2018-10-01T00:24:32.941Z,84.69
2018-10-01T00:25:32.950Z,85.10
2018-10-01T00:26:32.920Z,85.61
2018-10-01T00:27:32.904Z,86.02
2018-10-01T00:28:32.937Z,86.22
2018-10-01T00:29:32.884Z,86.32
2018-10-01T00:30:32.871Z,86.02
2018-10-01T00:31:32.900Z,84.79
2018-10-01T00:32:32.849Z,84.79
2018-10-01T00:33:32.993Z,84.79
2018-10-01T00:34:32.847Z,85.61
2018-10-01T00:35:32.897Z,84.89
2018-10-01T00:36:32.806Z,84.58
2018-10-01T00:37:32.794Z,85.50
2018-10-01T00:38:32.854Z,84.99
2018-10-01T00:39:32.784Z,84.79
2018-10-01T00:40:32.815Z,84.07
2018-10-01T00:41:32.752Z,83.97
2018-10-01T00:42:32.744Z,84.79
2018-10-01T00:43:32.893Z,84.79
2018-10-01T00:44:32.720Z,84.58
2018-10-01T00:45:32.708Z,84.22
2018-10-01T00:46:32.807Z,84.11
2018-10-01T00:47:32.686Z,84.31
2018-10-01T00:48:32.704Z,84.22
2018-10-01T00:49:32.661Z,84.31
2018-10-01T00:50:32.734Z,84.83
2018-10-01T00:51:32.639Z,84.83
2018-10-01T00:52:32.647Z,84.05
2018-10-01T00:53:32.649Z,84.46
2018-10-01T00:54:32.607Z,84.15
2018-10-01T00:55:40.314Z,84.36
2018-10-01T00:56:32.603Z,84.87
2018-10-01T00:57:32.685Z,84.77
2018-10-01T00:58:32.629Z,84.91
2018-10-01T00:59:32.614Z,84.91
2018-10-01T01:00:32.551Z,85.01
2018-10-01T01:01:32.529Z,85.52
2018-10-01T01:02:32.598Z,85.63
2018-10-01T01:03:32.507Z,85.11
2018-10-01T01:04:32.513Z,84.91
2018-10-01T01:05:32.573Z,85.01
2018-10-01T01:06:32.475Z,85.01
2018-10-01T01:07:32.464Z,84.80
2018-10-01T01:08:40.033Z,84.91
2018-10-01T01:09:32.479Z,85.11
2018-10-01T01:10:32.596Z,84.50
2018-10-01T01:11:32.475Z,85.11
2018-10-01T01:12:32.428Z,85.77
2018-10-01T01:13:32.395Z,86.07
2018-10-01T01:14:32.400Z,86.38
2018-10-01T01:15:32.406Z,86.18
2018-10-01T01:16:32.380Z,85.46
2018-10-01T01:17:32.351Z,86.18
2018-10-01T01:18:32.355Z,85.87
2018-10-01T01:19:32.324Z,86.18
2018-10-01T01:20:32.321Z,85.66
2018-10-01T01:21:41.502Z,86.28
2018-10-01T01:22:32.310Z,86.18
2018-10-01T01:23:32.365Z,86.07
2018-10-01T01:24:32.303Z,86.28
2018-10-01T01:25:32.355Z,85.66
2018-10-01T01:26:32.297Z,85.66
2018-10-01T01:27:32.408Z,85.60
2018-10-01T01:28:32.228Z,85.39
2018-10-01T01:29:32.234Z,85.66
2018-10-01T01:30:32.211Z,85.46
2018-10-01T01:31:32.194Z,85.30
2018-10-01T01:32:32.209Z,85.80
2018-10-01T01:33:32.192Z,85.71
2018-10-01T01:34:32.160Z,85.91
2018-10-01T01:35:40.336Z,85.91
2018-10-01T01:36:32.158Z,86.01
2018-10-01T01:37:32.140Z,86.22
2018-10-01T01:38:32.131Z,85.50
2018-10-01T01:39:32.130Z,85.60
2018-10-01T01:40:32.210Z,86.52
2018-10-01T01:41:32.205Z,85.54
2018-10-01T01:42:32.101Z,85.85
2018-10-01T01:43:32.061Z,86.46
2018-10-01T01:44:32.087Z,86.46
2018-10-01T01:45:32.139Z,86.46
2018-10-01T01:46:32.079Z,86.87
2018-10-01T01:47:32.018Z,86.36
2018-10-01T01:48:39.716Z,86.36
2018-10-01T01:49:32.006Z,86.98
2018-10-01T01:50:32.069Z,86.50
2018-10-01T01:51:32.023Z,86.77
2018-10-01T01:52:31.983Z,86.87
2018-10-01T01:53:32.065Z,86.46
2018-10-01T01:54:31.936Z,86.77
2018-10-01T01:55:31.942Z,86.66
2018-10-01T01:56:31.969Z,86.60
2018-10-01T01:57:31.928Z,86.40
2018-10-01T01:58:31.990Z,86.71
2018-10-01T01:59:39.914Z,85.89
2018-10-01T02:00:31.883Z,85.58
2018-10-01T02:01:31.861Z,85.89
2018-10-01T02:02:31.868Z,86.60
2018-10-01T02:03:31.905Z,85.58
2018-10-01T02:04:31.867Z,86.71
2018-10-01T02:05:31.849Z,86.95
2018-10-01T02:06:31.805Z,86.75
2018-10-01T02:07:31.809Z,87.16
2018-10-01T02:08:31.782Z,87.05
2018-10-01T02:09:41.160Z,86.95
2018-10-01T02:10:31.820Z,87.05
2018-10-01T02:11:31.753Z,87.26
2018-10-01T02:12:31.763Z,86.58
2018-10-01T02:13:31.745Z,86.85
2018-10-01T02:14:31.844Z,87.16
2018-10-01T02:15:31.814Z,87.16
2018-10-01T02:16:31.693Z,87.20
2018-10-01T02:17:31.680Z,86.85
2018-10-01T02:18:31.689Z,87.16
2018-10-01T02:19:31.663Z,86.85
2018-10-01T02:20:31.709Z,86.85
2018-10-01T02:21:31.669Z,87.37
2018-10-01T02:22:31.627Z,86.65
2018-10-01T02:23:31.627Z,87.26
2018-10-01T02:24:31.607Z,86.44
2018-10-01T02:25:31.595Z,86.85
2018-10-01T02:26:31.605Z,86.54
2018-10-01T02:27:31.592Z,87.05
2018-10-01T02:28:31.559Z,86.65
2018-10-01T02:29:31.550Z,86.13
2018-10-01T02:30:31.539Z,85.72
2018-10-01T02:31:31.540Z,86.75
2018-10-01T02:32:31.512Z,86.44
2018-10-01T02:33:31.523Z,86.17
2018-10-01T02:34:31.494Z,86.65
2018-10-01T02:35:31.480Z,85.93
2018-10-01T02:36:31.469Z,85.86
2018-10-01T02:37:31.493Z,86.17
2018-10-01T02:38:31.525Z,86.58
2018-10-01T02:39:31.455Z,86.68
2018-10-01T02:40:31.426Z,86.68
2018-10-01T02:41:31.434Z,86.58
2018-10-01T02:42:39.091Z,87.10
2018-10-01T02:43:31.423Z,86.85
2018-10-01T02:44:31.381Z,86.68
2018-10-01T02:45:31.553Z,86.79
2018-10-01T02:46:31.361Z,86.27
2018-10-01T02:47:31.425Z,86.38
2018-10-01T02:48:31.406Z,85.66
2018-10-01T02:49:31.347Z,85.97
2018-10-01T02:50:31.318Z,86.24
2018-10-01T02:51:31.321Z,86.13
2018-10-01T02:52:31.313Z,85.93
2018-10-01T02:53:31.301Z,86.44
2018-10-01T02:54:42.079Z,85.86
2018-10-01T02:55:31.276Z,87.10
2018-10-01T02:56:31.353Z,86.58
2018-10-01T02:57:31.251Z,86.48
2018-10-01T02:58:31.242Z,86.58
2018-10-01T02:59:31.231Z,87.10
2018-10-01T03:00:31.205Z,86.79
2018-10-01T03:01:31.217Z,86.58
2018-10-01T03:02:31.200Z,86.99
2018-10-01T03:03:31.240Z,86.75
2018-10-01T03:04:31.244Z,86.24
2018-10-01T03:05:31.167Z,86.48
2018-10-01T03:06:31.206Z,85.86
2018-10-01T03:07:31.152Z,86.48
2018-10-01T03:08:31.115Z,86.48
2018-10-01T03:09:31.106Z,86.44
2018-10-01T03:10:31.111Z,85.93
2018-10-01T03:11:31.099Z,85.52
2018-10-01T03:12:31.068Z,85.97
2018-10-01T03:13:31.071Z,85.93
2018-10-01T03:14:31.089Z,85.35
2018-10-01T03:15:31.053Z,86.68
2018-10-01T03:16:31.106Z,85.86
2018-10-01T03:17:31.018Z,85.86
2018-10-01T03:18:31.003Z,85.66
2018-10-01T03:19:31.041Z,85.55
2018-10-01T03:20:30.979Z,84.74
2018-10-01T03:21:30.983Z,85.14
2018-10-01T03:22:30.985Z,85.25
2018-10-01T03:23:30.944Z,85.55
2018-10-01T03:24:30.957Z,85.66
2018-10-01T03:25:30.945Z,85.76
2018-10-01T03:26:30.912Z,85.66
2018-10-01T03:27:38.515Z,85.14
2018-10-01T03:28:30.907Z,85.55
2018-10-01T03:29:30.895Z,85.66
2018-10-01T03:30:30.871Z,85.55
2018-10-01T03:31:30.883Z,85.76
2018-10-01T03:32:30.876Z,85.04
2018-10-01T03:33:30.848Z,85.31
2018-10-01T03:34:30.850Z,84.80
2018-10-01T03:35:30.818Z,84.69
2018-10-01T03:36:30.805Z,84.74
2018-10-01T03:37:30.820Z,84.69
2018-10-01T03:38:30.800Z,84.49
2018-10-01T03:39:30.797Z,84.80
2018-10-01T03:40:30.758Z,83.56
2018-10-01T03:41:30.746Z,84.28
2018-10-01T03:42:30.738Z,84.39
2018-10-01T03:43:30.742Z,85.11
2018-10-01T03:44:30.843Z,85.00
2018-10-01T03:45:30.728Z,84.08
2018-10-01T03:46:30.740Z,84.69
2018-10-01T03:47:30.753Z,84.49
2018-10-01T03:48:30.702Z,83.77
2018-10-01T03:49:30.763Z,83.77
2018-10-01T03:50:30.649Z,84.08
2018-10-01T03:51:30.640Z,84.28
2018-10-01T03:52:30.638Z,83.87
2018-10-01T03:53:30.615Z,84.49
2018-10-01T03:54:30.688Z,83.67
2018-10-01T03:55:30.632Z,84.49
2018-10-01T03:56:30.606Z,84.90
2018-10-01T03:57:30.581Z,84.49
2018-10-01T03:58:30.564Z,84.39
2018-10-01T03:59:30.564Z,84.69
2018-10-01T04:00:30.560Z,84.90
2018-10-01T04:01:30.546Z,84.39
2018-10-01T04:02:30.515Z,84.49
2018-10-01T04:03:30.518Z,84.94
2018-10-01T04:04:30.493Z,84.59
2018-10-01T04:05:30.485Z,83.67
2018-10-01T04:06:30.500Z,84.28
2018-10-01T04:07:30.482Z,84.08
2018-10-01T04:08:30.461Z,82.95
2018-10-01T04:09:30.440Z,83.05
2018-10-01T04:10:30.428Z,82.95
2018-10-01T04:11:30.420Z,83.26
2018-10-01T04:12:30.423Z,83.36
2018-10-01T04:13:30.396Z,82.95
2018-10-01T04:14:30.483Z,83.26
2018-10-01T04:15:30.373Z,82.95
2018-10-01T04:16:30.363Z,82.43
2018-10-01T04:17:30.386Z,82.33
2018-10-01T04:18:30.365Z,82.03
2018-10-01T04:19:30.330Z,82.84
2018-10-01T04:20:30.333Z,83.26
2018-10-01T04:21:30.359Z,83.46
2018-10-01T04:22:30.327Z,82.95
2018-10-01T04:23:30.288Z,83.05
2018-10-01T04:24:37.964Z,83.05
2018-10-01T04:25:30.301Z,82.64
2018-10-01T04:26:30.267Z,82.54
2018-10-01T04:27:30.323Z,83.36
2018-10-01T04:28:30.232Z,82.84
2018-10-01T04:29:30.285Z,82.84
2018-10-01T04:30:30.389Z,83.05
2018-10-01T04:31:30.221Z,83.15
2018-10-01T04:32:30.186Z,83.26
2018-10-01T04:33:30.187Z,83.05
2018-10-01T04:34:38.123Z,82.95
2018-10-01T04:35:30.212Z,83.01
2018-10-01T04:36:30.176Z,82.75
2018-10-01T04:37:30.133Z,82.81
2018-10-01T04:38:30.145Z,82.70
2018-10-01T04:39:30.123Z,82.70
2018-10-01T04:40:30.125Z,83.67
2018-10-01T04:41:30.088Z,82.84
2018-10-01T04:42:30.132Z,82.75
2018-10-01T04:43:30.089Z,82.84
2018-10-01T04:44:30.141Z,83.46
2018-10-01T04:45:38.750Z,82.75
2018-10-01T04:46:30.035Z,83.56
2018-10-01T04:47:30.023Z,83.05
2018-10-01T04:48:30.046Z,83.05
2018-10-01T04:49:30.077Z,83.67
2018-10-01T04:50:30.012Z,83.77
2018-10-01T04:51:29.983Z,83.77
2018-10-01T04:52:30.030Z,83.36
2018-10-01T04:53:29.959Z,84.22
2018-10-01T04:54:29.971Z,83.91
2018-10-01T04:55:29.935Z,83.77
2018-10-01T04:56:29.927Z,84.49
2018-10-01T04:57:30.001Z,83.61
2018-10-01T04:58:30.011Z,84.28
2018-10-01T04:59:29.889Z,83.81
2018-10-01T05:00:29.894Z,83.91
2018-10-01T05:01:29.869Z,83.81
2018-10-01T05:02:29.863Z,83.50
2018-10-01T05:03:29.847Z,83.91
2018-10-01T05:04:29.833Z,83.81
2018-10-01T05:05:29.826Z,83.61
2018-10-01T05:06:29.834Z,83.75
2018-10-01T05:07:29.800Z,84.42
2018-10-01T05:08:29.824Z,84.26
2018-10-01T05:09:29.782Z,83.95
2018-10-01T05:10:29.772Z,84.05
2018-10-01T05:11:29.764Z,84.05
2018-10-01T05:12:29.760Z,83.95
2018-10-01T05:13:29.757Z,84.47
2018-10-01T05:14:29.746Z,83.95
2018-10-01T05:15:29.711Z,84.26
2018-10-01T05:16:29.780Z,84.77
2018-10-01T05:17:29.697Z,84.56
2018-10-01T05:18:29.680Z,84.88
2018-10-01T05:19:29.718Z,84.71
2018-10-01T05:20:29.711Z,84.81
2018-10-01T05:21:29.676Z,84.71
2018-10-01T05:22:29.635Z,84.61
2018-10-01T05:23:29.708Z,85.22
2018-10-01T05:24:29.614Z,84.71
2018-10-01T05:25:29.645Z,85.02
2018-10-01T05:26:29.631Z,85.33
2018-10-01T05:27:29.584Z,85.02
2018-10-01T05:28:29.570Z,85.22
2018-10-01T05:29:29.558Z,85.33
2018-10-01T05:30:29.546Z,85.02
2018-10-01T05:31:29.609Z,85.02
2018-10-01T05:32:29.550Z,85.12
2018-10-01T05:33:29.524Z,85.26
2018-10-01T05:34:29.555Z,85.16
2018-10-01T05:35:29.493Z,85.36
2018-10-01T05:36:29.481Z,85.16
2018-10-01T05:37:29.502Z,85.26
2018-10-01T05:38:29.461Z,85.47
2018-10-01T05:39:38.523Z,85.36
2018-10-01T05:40:29.439Z,85.57
2018-10-01T05:41:29.473Z,84.85
2018-10-01T05:42:29.507Z,85.47
2018-10-01T05:43:29.550Z,85.47
2018-10-01T05:44:29.427Z,85.06
2018-10-01T05:45:29.399Z,85.36
2018-10-01T05:46:29.371Z,85.16
2018-10-01T05:47:29.366Z,85.41
2018-10-01T05:48:29.361Z,85.41
2018-10-01T05:49:37.107Z,85.71
2018-10-01T05:50:29.340Z,85.92
2018-10-01T05:51:29.341Z,85.92
2018-10-01T05:52:29.391Z,86.64
2018-10-01T05:53:29.336Z,86.13
2018-10-01T05:54:29.403Z,85.82
2018-10-01T05:55:29.322Z,86.54
2018-10-01T05:56:29.281Z,86.74
2018-10-01T05:57:29.291Z,86.58
2018-10-01T05:58:29.244Z,86.54
2018-10-01T05:59:29.246Z,87.19
2018-10-01T06:00:39.260Z,86.58
2018-10-01T06:01:29.228Z,86.68
2018-10-01T06:02:29.232Z,86.54
2018-10-01T06:03:29.261Z,85.92
2018-10-01T06:04:29.191Z,86.02
2018-10-01T06:05:29.165Z,86.02
2018-10-01T06:06:29.313Z,85.82
2018-10-01T06:07:29.159Z,86.54
2018-10-01T06:08:29.251Z,86.95
2018-10-01T06:09:29.201Z,86.74
2018-10-01T06:10:29.123Z,86.50
2018-10-01T06:11:29.099Z,86.08
2018-10-01T06:12:29.117Z,85.88
2018-10-01T06:13:29.102Z,85.98
2018-10-01T06:14:29.066Z,85.98
2018-10-01T06:15:29.156Z,86.08
2018-10-01T06:16:29.045Z,86.08
2018-10-01T06:17:29.079Z,85.98
2018-10-01T06:18:29.046Z,86.29
2018-10-01T06:19:29.009Z,86.66
2018-10-01T06:20:29.009Z,86.15
2018-10-01T06:21:36.863Z,86.05
2018-10-01T06:22:29.013Z,85.94
2018-10-01T06:23:28.967Z,86.46
2018-10-01T06:24:29.082Z,86.56
2018-10-01T06:25:28.954Z,85.84
2018-10-01T06:26:28.968Z,86.05
2018-10-01T06:27:28.942Z,85.80
2018-10-01T06:28:28.916Z,86.62
2018-10-01T06:29:28.909Z,85.80
2018-10-01T06:30:29.031Z,85.39
2018-10-01T06:31:36.542Z,85.28
2018-10-01T06:32:28.886Z,85.28
2018-10-01T06:33:28.970Z,84.98
2018-10-01T06:34:28.874Z,85.39
2018-10-01T06:35:28.897Z,84.98
2018-10-01T06:36:28.834Z,85.35
2018-10-01T06:37:28.846Z,85.14
2018-10-01T06:38:28.801Z,85.14
2018-10-01T06:39:28.828Z,85.14
2018-10-01T06:40:28.785Z,84.77
2018-10-01T06:41:28.811Z,85.08
2018-10-01T06:42:28.762Z,84.98
2018-10-01T06:43:28.747Z,84.94
2018-10-01T06:44:28.793Z,85.14
2018-10-01T06:45:28.741Z,84.53
2018-10-01T06:46:28.722Z,84.22
2018-10-01T06:47:28.722Z,84.42
2018-10-01T06:48:28.692Z,84.42
2018-10-01T06:49:28.723Z,84.42
2018-10-01T06:50:28.678Z,84.74
2018-10-01T06:51:28.673Z,85.14
2018-10-01T06:52:28.685Z,85.14
2018-10-01T06:53:28.638Z,85.04
2018-10-01T06:54:28.624Z,85.14
2018-10-01T06:55:38.837Z,85.14
2018-10-01T06:56:28.800Z,85.04
2018-10-01T06:57:28.619Z,85.35
2018-10-01T06:58:28.586Z,84.94
2018-10-01T06:59:28.593Z,85.31
2018-10-01T07:00:28.564Z,85.00
2018-10-01T07:01:28.569Z,85.31
2018-10-01T07:02:28.565Z,84.90
2018-10-01T07:03:28.882Z,85.11
2018-10-01T07:04:28.599Z,85.00
2018-10-01T07:05:28.686Z,84.69
2018-10-01T07:06:28.543Z,85.06
2018-10-01T07:07:28.548Z,84.80
2018-10-01T07:08:28.478Z,84.80
2018-10-01T07:09:28.513Z,84.66
2018-10-01T07:10:28.448Z,84.66
2018-10-01T07:11:28.531Z,84.66
2018-10-01T07:12:28.488Z,84.76
2018-10-01T07:13:28.554Z,84.66
2018-10-01T07:14:36.341Z,84.76
2018-10-01T07:15:36.466Z,84.61
2018-10-01T07:16:28.497Z,84.10
2018-10-01T07:17:28.549Z,84.52
2018-10-01T07:18:28.420Z,84.31
2018-10-01T07:19:28.654Z,83.39
2018-10-01T07:20:28.391Z,83.07
2018-10-01T07:21:28.338Z,83.39
2018-10-01T07:22:28.411Z,83.80
2018-10-01T07:23:28.559Z,83.18
2018-10-01T07:24:28.317Z,83.04
2018-10-01T07:25:28.287Z,82.63
2018-10-01T07:26:28.282Z,82.49
2018-10-01T07:27:28.308Z,82.49
2018-10-01T07:28:28.292Z,82.59
2018-10-01T07:29:28.239Z,81.87
2018-10-01T07:30:28.346Z,81.77
2018-10-01T07:31:28.359Z,80.91
2018-10-01T07:32:28.214Z,80.91
2018-10-01T07:33:28.214Z,81.12
2018-10-01T07:34:36.188Z,81.22
2018-10-01T07:35:28.177Z,79.85
2018-10-01T07:36:28.481Z,79.61
2018-10-01T07:37:28.203Z,79.10
2018-10-01T07:38:28.143Z,78.89
2018-10-01T07:39:28.276Z,79.10
2018-10-01T07:40:28.225Z,78.59
2018-10-01T07:41:28.206Z,77.87
2018-10-01T07:42:28.400Z,78.69
2018-10-01T07:43:28.195Z,78.69
2018-10-01T07:44:28.075Z,78.14
2018-10-01T07:45:28.206Z,77.42
2018-10-01T07:46:28.415Z,77.32
2018-10-01T07:47:28.070Z,76.57
2018-10-01T07:48:28.197Z,76.03
2018-10-01T07:49:28.088Z,76.12
2018-10-01T07:50:28.185Z,74.56
2018-10-01T07:51:28.023Z,74.32
2018-10-01T07:52:27.989Z,73.98
2018-10-01T07:53:28.005Z,72.96
2018-10-01T07:54:37.161Z,73.13
2018-10-01T07:55:27.957Z,72.28
2018-10-01T07:56:28.009Z,71.56
2018-10-01T07:57:28.120Z,71.56
2018-10-01T07:58:28.081Z,71.06
2018-10-01T07:59:28.055Z,70.04
2018-10-01T08:00:27.936Z,70.31
2018-10-01T08:01:27.928Z,70.10
2018-10-01T08:02:27.953Z,70.51
2018-10-01T08:03:27.917Z,70.72
2018-10-01T08:04:27.855Z,70.48
2018-10-01T08:05:27.898Z,69.67
2018-10-01T08:06:27.829Z,68.75
2018-10-01T08:07:27.900Z,69.67
2018-10-01T08:08:27.838Z,68.95
2018-10-01T08:09:27.877Z,68.57
2018-10-01T08:10:27.790Z,68.75
2018-10-01T08:11:27.813Z,68.78
2018-10-01T08:12:27.763Z,68.57
2018-10-01T08:13:35.581Z,68.88
2018-10-01T08:14:27.819Z,68.85
2018-10-01T08:15:28.011Z,67.90
2018-10-01T08:16:27.770Z,67.60
2018-10-01T08:17:27.803Z,67.52
2018-10-01T08:18:27.699Z,67.32
2018-10-01T08:19:27.801Z,66.88
2018-10-01T08:20:27.711Z,67.19
2018-10-01T08:21:27.662Z,66.88
2018-10-01T08:22:27.672Z,67.19
2018-10-01T08:23:27.860Z,65.66
2018-10-01T08:24:27.707Z,66.47
2018-10-01T08:25:27.624Z,66.88
2018-10-01T08:26:27.685Z,66.07
2018-10-01T08:27:27.596Z,66.99
2018-10-01T08:28:27.593Z,65.16
2018-10-01T08:29:27.649Z,65.05
2018-10-01T08:30:27.583Z,65.25
2018-10-01T08:31:27.624Z,65.36
2018-10-01T08:32:27.585Z,65.36
2018-10-01T08:33:35.357Z,64.72
2018-10-01T08:34:27.697Z,64.48
2018-10-01T08:35:28.011Z,65.33
2018-10-01T08:36:27.593Z,65.46
2018-10-01T08:37:27.579Z,67.19
2018-10-01T08:38:27.738Z,67.05
2018-10-01T08:39:27.467Z,66.24
2018-10-01T08:40:27.498Z,66.96
2018-10-01T08:41:27.472Z,66.14
2018-10-01T08:42:27.434Z,65.83
2018-10-01T08:43:27.508Z,65.86
2018-10-01T08:44:27.436Z,67.19
2018-10-01T08:45:27.477Z,68.10
2018-10-01T08:46:27.390Z,68.51
2018-10-01T08:47:27.486Z,67.49
2018-10-01T08:48:27.368Z,66.71
2018-10-01T08:49:27.385Z,67.32
2018-10-01T08:50:27.411Z,67.96
2018-10-01T08:51:27.332Z,67.59
2018-10-01T08:52:35.715Z,68.51
2018-10-01T08:53:27.408Z,68.40
2018-10-01T08:54:27.585Z,68.68
2018-10-01T08:55:27.384Z,68.88
2018-10-01T08:56:27.460Z,69.39
2018-10-01T08:57:27.311Z,68.48
2018-10-01T08:58:27.361Z,68.57
2018-10-01T08:59:27.439Z,68.48
2018-10-01T09:00:27.267Z,67.76
2018-10-01T09:01:27.262Z,68.44
2018-10-01T09:02:27.235Z,67.93
2018-10-01T09:03:27.203Z,68.13
2018-10-01T09:04:27.191Z,67.22
2018-10-01T09:05:27.233Z,67.32
2018-10-01T09:06:27.228Z,68.44
2018-10-01T09:07:27.181Z,67.32
2018-10-01T09:08:27.233Z,67.05
2018-10-01T09:09:27.301Z,67.38
2018-10-01T09:10:27.125Z,68.61
2018-10-01T09:11:36.219Z,70.14
2018-10-01T09:12:27.144Z,69.32
2018-10-01T09:13:27.122Z,68.40
2018-10-01T09:14:27.132Z,69.53
2018-10-01T09:15:27.159Z,69.53
2018-10-01T09:16:27.165Z,69.42
2018-10-01T09:17:27.059Z,69.32
2018-10-01T09:18:27.066Z,67.90
2018-10-01T09:19:27.046Z,68.20
2018-10-01T09:20:27.020Z,68.30
2018-10-01T09:21:27.156Z,68.30
2018-10-01T09:22:26.992Z,68.20
2018-10-01T09:23:27.033Z,68.71
2018-10-01T09:24:26.974Z,68.10
2018-10-01T09:25:26.994Z,68.10
2018-10-01T09:26:26.989Z,67.08
2018-10-01T09:27:26.993Z,68.40
2018-10-01T09:28:26.927Z,68.20
2018-10-01T09:29:26.956Z,68.10
2018-10-01T09:30:26.962Z,69.35
2018-10-01T09:31:36.060Z,68.84
2018-10-01T09:32:26.938Z,68.95
2018-10-01T09:33:26.993Z,68.95
2018-10-01T09:34:26.887Z,69.15
2018-10-01T09:35:26.921Z,69.08
2018-10-01T09:36:26.990Z,69.18
2018-10-01T09:37:26.845Z,69.38
2018-10-01T09:38:26.912Z,69.29
2018-10-01T09:39:26.838Z,68.77
2018-10-01T09:40:26.819Z,68.95
2018-10-01T09:41:26.788Z,68.64
2018-10-01T09:42:26.803Z,69.15
2018-10-01T09:43:26.775Z,68.20
2018-10-01T09:44:26.775Z,68.88
2018-10-01T09:45:26.739Z,66.71
2018-10-01T09:46:26.812Z,67.19
2018-10-01T09:47:26.761Z,66.91
2018-10-01T09:48:26.706Z,67.08
2018-10-01T09:49:26.717Z,65.80
2018-10-01T09:50:36.269Z,66.17
2018-10-01T09:51:26.800Z,65.46
2018-10-01T09:52:26.719Z,65.66
2018-10-01T09:53:26.848Z,65.05
2018-10-01T09:54:26.689Z,65.36
2018-10-01T09:55:26.646Z,63.32
2018-10-01T09:56:26.677Z,63.53
2018-10-01T09:57:26.625Z,63.53
2018-10-01T09:58:26.628Z,61.61
2018-10-01T09:59:26.631Z,62.84
2018-10-01T10:00:26.574Z,63.15
2018-10-01T10:01:26.589Z,63.53
2018-10-01T10:02:26.604Z,64.75
2018-10-01T10:03:26.564Z,63.49
2018-10-01T10:04:26.755Z,63.09
2018-10-01T10:05:26.589Z,63.29
2018-10-01T10:06:26.598Z,61.05
2018-10-01T10:07:26.532Z,60.85
2018-10-01T10:08:26.540Z,59.12
2018-10-01T10:09:26.510Z,60.44
2018-10-01T10:10:35.732Z,62.51
2018-10-01T10:11:26.556Z,61.49
2018-10-01T10:12:26.456Z,62.51
2018-10-01T10:13:26.476Z,62.51
2018-10-01T10:14:26.516Z,64.78
2018-10-01T10:15:26.554Z,65.69
2018-10-01T10:16:26.655Z,66.54
2018-10-01T10:17:26.404Z,66.97
2018-10-01T10:18:26.373Z,66.77
2018-10-01T10:19:26.404Z,67.18
2018-10-01T10:20:26.507Z,66.97
2018-10-01T10:21:26.433Z,67.79
2018-10-01T10:22:26.364Z,67.01
2018-10-01T10:23:26.366Z,67.32
2018-10-01T10:24:26.306Z,68.95
2018-10-01T10:25:26.330Z,70.44
2018-10-01T10:26:26.334Z,70.14
2018-10-01T10:27:26.286Z,70.65
2018-10-01T10:28:26.336Z,69.22
2018-10-01T10:29:26.268Z,69.59
2018-10-01T10:30:33.947Z,69.70
2018-10-01T10:31:26.376Z,68.57
2018-10-01T10:32:26.245Z,67.73
2018-10-01T10:33:26.370Z,68.24
2018-10-01T10:34:26.346Z,67.43
2018-10-01T10:35:26.299Z,68.13
2018-10-01T10:36:26.244Z,67.19
2018-10-01T10:37:26.190Z,67.80
2018-10-01T10:38:26.203Z,65.05
2018-10-01T10:39:26.224Z,65.43
2018-10-01T10:40:26.197Z,64.89
2018-10-01T10:41:26.254Z,64.96
2018-10-01T10:42:26.115Z,64.86
2018-10-01T10:43:26.094Z,62.82
2018-10-01T10:44:26.275Z,61.98
2018-10-01T10:45:26.080Z,62.97
2018-10-01T10:46:26.068Z,61.34
2018-10-01T10:47:26.065Z,61.75
2018-10-01T10:48:26.075Z,60.50
2018-10-01T10:49:35.022Z,60.74
2018-10-01T10:50:26.095Z,60.91
2018-10-01T10:51:26.096Z,60.60
2018-10-01T10:52:26.042Z,61.52
2018-10-01T10:53:26.027Z,61.59
2018-10-01T10:54:26.036Z,60.27
2018-10-01T10:55:26.009Z,60.75
2018-10-01T10:56:25.980Z,58.95
2018-10-01T10:57:25.971Z,59.48
2018-10-01T10:58:25.997Z,60.47
2018-10-01T10:59:25.922Z,60.50
2018-10-01T11:00:25.979Z,60.71
2018-10-01T11:01:25.897Z,59.92
2018-10-01T11:02:25.934Z,60.74
2018-10-01T11:03:25.879Z,59.92
2018-10-01T11:04:25.879Z,61.52
2018-10-01T11:05:25.888Z,61.21
2018-10-01T11:06:25.857Z,60.50
2018-10-01T11:07:25.892Z,60.50
2018-10-01T11:08:25.834Z,59.79
2018-10-01T11:09:25.809Z,61.14
2018-10-01T11:10:25.819Z,61.65
2018-10-01T11:11:34.701Z,61.44
2018-10-01T11:12:26.071Z,59.84
2018-10-01T11:13:25.847Z,59.37
2018-10-01T11:14:26.023Z,59.55
2018-10-01T11:15:25.806Z,63.56
2018-10-01T11:16:25.744Z,67.08
2018-10-01T11:17:25.766Z,69.59
2018-10-01T11:18:25.881Z,71.67
2018-10-01T11:19:25.808Z,73.06
2018-10-01T11:20:25.936Z,74.35
2018-10-01T11:21:25.786Z,75.89
2018-10-01T11:22:25.691Z,75.79
2018-10-01T11:23:25.660Z,77.97
2018-10-01T11:24:25.694Z,76.75
2018-10-01T11:25:25.699Z,78.42
2018-10-01T11:26:25.697Z,80.53
2018-10-01T11:27:25.643Z,82.98
2018-10-01T11:28:25.611Z,82.68
2018-10-01T11:29:25.587Z,84.58
2018-10-01T11:30:35.823Z,79.82
2018-10-01T11:31:25.644Z,80.19
2018-10-01T11:32:25.558Z,81.88
2018-10-01T11:33:25.633Z,84.50
2018-10-01T11:34:25.559Z,81.13
2018-10-01T11:35:25.842Z,81.51
2018-10-01T11:36:25.681Z,82.32
2018-10-01T11:37:25.629Z,80.89
2018-10-01T11:38:25.489Z,80.18
2018-10-01T11:39:25.558Z,80.69
2018-10-01T11:40:25.466Z,82.93
2018-10-01T11:41:25.524Z,83.10
2018-10-01T11:42:25.448Z,82.49
2018-10-01T11:43:25.469Z,81.67
2018-10-01T11:44:25.482Z,81.67
2018-10-01T11:45:25.419Z,80.78
2018-10-01T11:46:25.399Z,82.57
2018-10-01T11:47:25.435Z,81.11
2018-10-01T11:48:25.390Z,78.93
2018-10-01T11:49:33.044Z,78.73
2018-10-01T11:50:25.391Z,78.28
2018-10-01T11:51:25.454Z,75.95
2018-10-01T11:52:25.371Z,77.33
2018-10-01T11:53:25.353Z,77.64
2018-10-01T11:54:25.432Z,78.21
2018-10-01T11:55:25.348Z,76.99
2018-10-01T11:56:25.288Z,75.33
2018-10-01T11:57:25.338Z,76.14
2018-10-01T11:58:25.292Z,75.80
2018-10-01T11:59:25.280Z,75.80
2018-10-01T12:00:25.298Z,76.31
2018-10-01T12:01:25.282Z,74.65
2018-10-01T12:02:25.247Z,72.52
2018-10-01T12:03:25.360Z,73.13
2018-10-01T12:04:25.510Z,73.53
2018-10-01T12:05:25.272Z,73.26
2018-10-01T12:06:25.297Z,74.28
2018-10-01T12:07:25.181Z,73.30
2018-10-01T12:08:33.169Z,73.23
2018-10-01T12:09:25.182Z,72.55
2018-10-01T12:10:25.207Z,73.60
2018-10-01T12:11:25.122Z,73.30
2018-10-01T12:12:25.130Z,75.43
2018-10-01T12:13:25.128Z,75.50
2018-10-01T12:14:25.091Z,75.67
2018-10-01T12:15:25.384Z,76.31
2018-10-01T12:16:25.154Z,75.23
2018-10-01T12:17:25.095Z,75.02
2018-10-01T12:18:25.048Z,73.87
2018-10-01T12:19:25.065Z,73.67
2018-10-01T12:20:25.056Z,68.32
2018-10-01T12:21:25.083Z,70.38
2018-10-01T12:22:35.255Z,69.77
2018-10-01T12:23:24.999Z,68.21
2018-10-01T12:24:24.985Z,67.69
2018-10-01T12:25:25.002Z,66.20
2018-10-01T12:26:24.956Z,69.26
2018-10-01T12:27:24.973Z,71.91
2018-10-01T12:28:24.985Z,69.36
2018-10-01T12:29:24.947Z,72.62
2018-10-01T12:30:24.919Z,72.82
2018-10-01T12:31:25.162Z,67.43
2018-10-01T12:32:24.982Z,69.36
2018-10-01T12:33:24.963Z,62.61
2018-10-01T12:34:24.884Z,67.80
2018-10-01T12:35:24.917Z,66.27
2018-10-01T12:36:24.848Z,68.62
2018-10-01T12:37:24.836Z,71.26
2018-10-01T12:38:24.898Z,71.16
2018-10-01T12:39:24.929Z,66.82
2018-10-01T12:40:24.802Z,68.82
2018-10-01T12:41:34.024Z,66.99
2018-10-01T12:42:24.825Z,69.15
2018-10-01T12:43:25.010Z,67.49
2018-10-01T12:44:24.879Z,69.73
2018-10-01T12:45:24.951Z,70.45
2018-10-01T12:46:24.781Z,71.09
2018-10-01T12:47:24.725Z,73.13
2018-10-01T12:48:24.755Z,70.00
2018-10-01T12:49:24.703Z,72.04
2018-10-01T12:50:24.716Z,72.14
2018-10-01T12:51:24.840Z,71.77
2018-10-01T12:52:24.670Z,69.32